sensor_id;sensor_type;location;lat;lon;timestamp;pressure;altitude;pressure_sealevel;temperature;humidity
30421;BME280;17218;54.070;10.012;2023-06-14T00:00:46;101721.31;;;16.42;100.00
30421;BME280;17218;54.070;10.012;2023-06-14T00:03:14;101722.22;;;16.39;100.00
30421;BME280;17218;54.070;10.012;2023-06-14T00:05:42;101723.91;;;16.43;100.00
30421;BME280;17218;54.070;10.012;2023-06-14T00:08:11;101723.94;;;16.39;100.00
30421;BME280;17218;54.070;10.012;2023-06-14T00:10:38;101726.59;;;16.37;100.00
30421;BME280;17218;54.070;10.012;2023-06-14T00:13:08;101731.09;;;16.29;100.00
30421;BME280;17218;54.070;10.012;2023-06-14T00:15:34;101729.34;;;16.28;100.00
30421;BME280;17218;54.070;10.012;2023-06-14T00:18:01;101726.81;;;16.23;100.00
30421;BME280;17218;54.070;10.012;2023-06-14T00:20:30;101727.78;;;16.17;100.00
30421;BME280;17218;54.070;10.012;2023-06-14T00:22:57;101734.84;;;16.12;100.00
30421;BME280;17218;54.070;10.012;2023-06-14T00:25:24;101727.97;;;16.05;100.00
30421;BME280;17218;54.070;10.012;2023-06-14T00:27:51;101732.41;;;15.96;100.00
30421;BME280;17218;54.070;10.012;2023-06-14T00:30:19;101733.31;;;15.92;100.00
30421;BME280;17218;54.070;10.012;2023-06-14T00:32:47;101731.69;;;15.83;100.00
30421;BME280;17218;54.070;10.012;2023-06-14T00:35:13;101736.06;;;15.81;100.00
30421;BME280;17218;54.070;10.012;2023-06-14T00:37:40;101733.56;;;15.75;100.00
30421;BME280;17218;54.070;10.012;2023-06-14T00:40:07;101736.19;;;15.72;100.00
30421;BME280;17218;54.070;10.012;2023-06-14T00:42:34;101730.97;;;15.72;100.00
30421;BME280;17218;54.070;10.012;2023-06-14T00:45:00;101746.66;;;15.70;100.00
30421;BME280;17218;54.070;10.012;2023-06-14T00:47:28;101743.22;;;15.67;100.00
30421;BME280;17218;54.070;10.012;2023-06-14T00:49:55;101735.38;;;15.68;100.00
30421;BME280;17218;54.070;10.012;2023-06-14T00:52:22;101743.22;;;15.67;100.00
30421;BME280;17218;54.070;10.012;2023-06-14T00:54:50;101744.09;;;15.67;100.00
30421;BME280;17218;54.070;10.012;2023-06-14T00:57:17;101746.63;;;15.75;100.00
30421;BME280;17218;54.070;10.012;2023-06-14T00:59:45;101742.25;;;15.76;100.00
30421;BME280;17218;54.070;10.012;2023-06-14T01:02:12;101737.94;;;15.73;100.00
30421;BME280;17218;54.070;10.012;2023-06-14T01:04:43;101738.00;;;15.70;100.00
30421;BME280;17218;54.070;10.012;2023-06-14T01:07:21;101757.16;;;15.67;100.00
30421;BME280;17218;54.070;10.012;2023-06-14T01:09:58;101752.00;;;15.61;100.00
30421;BME280;17218;54.070;10.012;2023-06-14T01:12:36;101750.31;;;15.58;100.00
30421;BME280;17218;54.070;10.012;2023-06-14T01:15:06;101748.56;;;15.57;100.00
30421;BME280;17218;54.070;10.012;2023-06-14T01:17:35;101757.28;;;15.58;100.00
30421;BME280;17218;54.070;10.012;2023-06-14T01:20:10;101759.09;;;15.53;100.00
30421;BME280;17218;54.070;10.012;2023-06-14T01:22:49;101756.44;;;15.54;100.00
30421;BME280;17218;54.070;10.012;2023-06-14T01:25:16;101762.50;;;15.58;100.00
30421;BME280;17218;54.070;10.012;2023-06-14T01:27:46;101752.13;;;15.52;100.00
30421;BME280;17218;54.070;10.012;2023-06-14T01:30:13;101762.63;;;15.47;100.00
30421;BME280;17218;54.070;10.012;2023-06-14T01:32:40;101760.72;;;15.60;100.00
30421;BME280;17218;54.070;10.012;2023-06-14T01:35:07;101766.81;;;15.59;100.00
30421;BME280;17218;54.070;10.012;2023-06-14T01:37:34;101763.44;;;15.50;100.00
30421;BME280;17218;54.070;10.012;2023-06-14T01:40:04;101760.81;;;15.52;100.00
30421;BME280;17218;54.070;10.012;2023-06-14T01:42:32;101770.41;;;15.50;100.00
30421;BME280;17218;54.070;10.012;2023-06-14T01:45:00;101762.69;;;15.42;100.00
30421;BME280;17218;54.070;10.012;2023-06-14T01:47:27;101766.13;;;15.46;100.00
30421;BME280;17218;54.070;10.012;2023-06-14T01:49:53;101761.72;;;15.48;100.00
30421;BME280;17218;54.070;10.012;2023-06-14T01:52:20;101761.75;;;15.46;100.00
30421;BME280;17218;54.070;10.012;2023-06-14T01:54:47;101759.22;;;15.42;100.00
30421;BME280;17218;54.070;10.012;2023-06-14T01:57:16;101763.63;;;15.35;100.00
30421;BME280;17218;54.070;10.012;2023-06-14T01:59:43;101766.25;;;15.33;100.00
30421;BME280;17218;54.070;10.012;2023-06-14T02:02:13;101759.25;;;15.35;100.00
30421;BME280;17218;54.070;10.012;2023-06-14T02:04:40;101760.19;;;15.33;100.00
30421;BME280;17218;54.070;10.012;2023-06-14T02:07:07;101761.88;;;15.35;100.00
30421;BME280;17218;54.070;10.012;2023-06-14T02:09:34;101750.47;;;15.43;100.00
30421;BME280;17218;54.070;10.012;2023-06-14T02:12:01;101756.50;;;15.48;100.00
30421;BME280;17218;54.070;10.012;2023-06-14T02:14:29;101755.56;;;15.57;100.00
30421;BME280;17218;54.070;10.012;2023-06-14T02:16:55;101750.34;;;15.54;100.00
30421;BME280;17218;54.070;10.012;2023-06-14T02:19:22;101753.00;;;15.52;100.00
30421;BME280;17218;54.070;10.012;2023-06-14T02:22:03;101760.78;;;15.57;100.00
30421;BME280;17218;54.070;10.012;2023-06-14T02:24:29;101762.47;;;15.62;100.00
30421;BME280;17218;54.070;10.012;2023-06-14T02:26:55;101757.25;;;15.62;100.00
30421;BME280;17218;54.070;10.012;2023-06-14T02:29:22;101763.38;;;15.55;100.00
30421;BME280;17218;54.070;10.012;2023-06-14T02:31:50;101761.69;;;15.53;100.00
30421;BME280;17218;54.070;10.012;2023-06-14T02:34:16;101762.50;;;15.58;100.00
30421;BME280;17218;54.070;10.012;2023-06-14T02:36:43;101763.44;;;15.50;100.00
30421;BME280;17218;54.070;10.012;2023-06-14T02:39:10;101767.88;;;15.44;100.00
30421;BME280;17218;54.070;10.012;2023-06-14T02:41:36;101761.84;;;15.40;100.00
30421;BME280;17218;54.070;10.012;2023-06-14T02:44:03;101765.31;;;15.42;100.00
30421;BME280;17218;54.070;10.012;2023-06-14T02:46:29;101767.00;;;15.45;100.00
30421;BME280;17218;54.070;10.012;2023-06-14T02:48:57;101770.47;;;15.47;100.00
30421;BME280;17218;54.070;10.012;2023-06-14T02:51:24;101774.81;;;15.46;100.00
30421;BME280;17218;54.070;10.012;2023-06-14T02:53:51;101773.91;;;15.49;100.00
30421;BME280;17218;54.070;10.012;2023-06-14T02:56:17;101771.31;;;15.49;100.00
30421;BME280;17218;54.070;10.012;2023-06-14T02:58:44;101777.41;;;15.46;100.00
30421;BME280;17218;54.070;10.012;2023-06-14T03:01:11;101777.50;;;15.40;100.00
30421;BME280;17218;54.070;10.012;2023-06-14T03:03:39;101763.56;;;15.41;100.00
30421;BME280;17218;54.070;10.012;2023-06-14T03:06:07;101772.19;;;15.46;100.00
30421;BME280;17218;54.070;10.012;2023-06-14T03:08:34;101764.44;;;15.38;100.00
30421;BME280;17218;54.070;10.012;2023-06-14T03:11:04;101774.94;;;15.34;100.00
30421;BME280;17218;54.070;10.012;2023-06-14T03:13:30;101776.78;;;15.25;100.00
30421;BME280;17218;54.070;10.012;2023-06-14T03:15:58;101784.63;;;15.22;100.00
30421;BME280;17218;54.070;10.012;2023-06-14T03:18:27;101775.09;;;15.21;100.00
30421;BME280;17218;54.070;10.012;2023-06-14T03:20:54;101778.56;;;15.22;100.00
30421;BME280;17218;54.070;10.012;2023-06-14T03:23:23;101776.72;;;15.30;100.00
30421;BME280;17218;54.070;10.012;2023-06-14T03:25:50;101780.19;;;15.32;100.00
30421;BME280;17218;54.070;10.012;2023-06-14T03:28:17;101771.44;;;15.35;100.00
30421;BME280;17218;54.070;10.012;2023-06-14T03:30:43;101795.75;;;15.42;100.00
30421;BME280;17218;54.070;10.012;2023-06-14T03:33:10;101792.34;;;15.33;100.00
30421;BME280;17218;54.070;10.012;2023-06-14T03:35:37;101789.72;;;15.35;100.00
30421;BME280;17218;54.070;10.012;2023-06-14T03:38:03;101780.13;;;15.37;100.00
30421;BME280;17218;54.070;10.012;2023-06-14T03:40:31;101795.78;;;15.38;100.00
30421;BME280;17218;54.070;10.012;2023-06-14T03:42:58;101788.03;;;15.32;100.00
30421;BME280;17218;54.070;10.012;2023-06-14T03:45:25;101788.91;;;15.33;100.00
30421;BME280;17218;54.070;10.012;2023-06-14T03:47:52;101793.19;;;15.37;100.00
30421;BME280;17218;54.070;10.012;2023-06-14T03:50:19;101794.81;;;15.49;100.00
30421;BME280;17218;54.070;10.012;2023-06-14T03:52:47;101788.69;;;15.53;100.00
30421;BME280;17218;54.070;10.012;2023-06-14T03:55:14;101796.50;;;15.53;100.00
30421;BME280;17218;54.070;10.012;2023-06-14T03:57:42;101800.78;;;15.57;100.00
30421;BME280;17218;54.070;10.012;2023-06-14T04:00:10;101798.22;;;15.54;100.00
30421;BME280;17218;54.070;10.012;2023-06-14T04:02:38;101806.06;;;15.54;100.00
30421;BME280;17218;54.070;10.012;2023-06-14T04:05:04;101820.00;;;15.52;100.00
30421;BME280;17218;54.070;10.012;2023-06-14T04:07:34;101821.72;;;15.54;100.00
30421;BME280;17218;54.070;10.012;2023-06-14T04:10:05;101820.00;;;15.52;100.00
30421;BME280;17218;54.070;10.012;2023-06-14T04:12:32;101823.50;;;15.50;100.00
30421;BME280;17218;54.070;10.012;2023-06-14T04:15:00;101825.19;;;15.56;100.00
30421;BME280;17218;54.070;10.012;2023-06-14T04:17:27;101828.63;;;15.60;100.00
30421;BME280;17218;54.070;10.012;2023-06-14T04:19:53;101818.97;;;15.67;100.00
30421;BME280;17218;54.070;10.012;2023-06-14T04:22:20;101826.72;;;15.74;100.00
30421;BME280;17218;54.070;10.012;2023-06-14T04:24:46;101825.00;;;15.73;100.00
30421;BME280;17218;54.070;10.012;2023-06-14T04:27:14;101830.25;;;15.73;100.00
30421;BME280;17218;54.070;10.012;2023-06-14T04:29:46;101838.00;;;15.78;100.00
30421;BME280;17218;54.070;10.012;2023-06-14T04:32:16;101840.59;;;15.80;100.00
30421;BME280;17218;54.070;10.012;2023-06-14T04:34:43;101844.94;;;15.81;100.00
30421;BME280;17218;54.070;10.012;2023-06-14T04:37:10;101846.59;;;15.88;100.00
30421;BME280;17218;54.070;10.012;2023-06-14T04:39:37;101848.28;;;15.92;100.00
30421;BME280;17218;54.070;10.012;2023-06-14T04:42:04;101845.59;;;16.02;100.00
30421;BME280;17218;54.070;10.012;2023-06-14T04:44:32;101842.09;;;16.03;100.00
30421;BME280;17218;54.070;10.012;2023-06-14T04:46:59;101843.81;;;16.05;100.00
30421;BME280;17218;54.070;10.012;2023-06-14T04:49:27;101839.34;;;16.14;100.00
30421;BME280;17218;54.070;10.012;2023-06-14T04:51:56;101845.31;;;16.22;100.00
30421;BME280;17218;54.070;10.012;2023-06-14T04:54:24;101841.75;;;16.31;100.00
30421;BME280;17218;54.070;10.012;2023-06-14T04:56:51;101851.19;;;16.41;100.00
30421;BME280;17218;54.070;10.012;2023-06-14T04:59:18;101849.44;;;16.42;100.00
30421;BME280;17218;54.070;10.012;2023-06-14T05:01:45;101843.38;;;16.40;100.00
30421;BME280;17218;54.070;10.012;2023-06-14T05:04:12;101844.22;;;16.39;100.00
30421;BME280;17218;54.070;10.012;2023-06-14T05:06:40;101853.72;;;16.46;100.00
30421;BME280;17218;54.070;10.012;2023-06-14T05:09:07;101849.22;;;16.56;100.00
30421;BME280;17218;54.070;10.012;2023-06-14T05:11:33;101843.91;;;16.62;100.00
30421;BME280;17218;54.070;10.012;2023-06-14T05:14:00;101840.38;;;16.65;100.00
30421;BME280;17218;54.070;10.012;2023-06-14T05:16:26;101849.16;;;16.62;100.00
30421;BME280;17218;54.070;10.012;2023-06-14T05:18:54;101848.31;;;16.60;100.00
30421;BME280;17218;54.070;10.012;2023-06-14T05:21:21;101860.44;;;16.66;100.00
30421;BME280;17218;54.070;10.012;2023-06-14T05:23:48;101854.31;;;16.65;100.00
30421;BME280;17218;54.070;10.012;2023-06-14T05:26:16;101849.00;;;16.70;100.00
30421;BME280;17218;54.070;10.012;2023-06-14T05:28:42;101851.63;;;16.70;100.00
30421;BME280;17218;54.070;10.012;2023-06-14T05:31:09;101853.34;;;16.73;100.00
30421;BME280;17218;54.070;10.012;2023-06-14T05:33:35;101856.75;;;16.78;100.00
30421;BME280;17218;54.070;10.012;2023-06-14T05:36:02;101851.44;;;16.84;100.00
30421;BME280;17218;54.070;10.012;2023-06-14T05:38:28;101858.44;;;16.82;100.00
30421;BME280;17218;54.070;10.012;2023-06-14T05:40:56;101860.28;;;16.75;100.00
30421;BME280;17218;54.070;10.012;2023-06-14T05:43:23;101862.84;;;16.78;100.00
30421;BME280;17218;54.070;10.012;2023-06-14T05:45:49;101861.84;;;16.87;100.00
30421;BME280;17218;54.070;10.012;2023-06-14T05:48:16;101864.34;;;16.95;100.00
30421;BME280;17218;54.070;10.012;2023-06-14T05:50:42;101869.44;;;17.01;100.00
30421;BME280;17218;54.070;10.012;2023-06-14T05:53:09;101866.66;;;17.15;100.00
30421;BME280;17218;54.070;10.012;2023-06-14T05:55:36;101869.19;;;17.20;100.00
30421;BME280;17218;54.070;10.012;2023-06-14T05:58:03;101867.38;;;17.24;100.00
30421;BME280;17218;54.070;10.012;2023-06-14T06:00:30;101880.31;;;17.33;100.00
30421;BME280;17218;54.070;10.012;2023-06-14T06:02:57;101871.38;;;17.45;100.00
30421;BME280;17218;54.070;10.012;2023-06-14T06:05:24;101868.69;;;17.48;100.00
30421;BME280;17218;54.070;10.012;2023-06-14T06:07:51;101869.59;;;17.47;100.00
30421;BME280;17218;54.070;10.012;2023-06-14T06:10:17;101874.84;;;17.47;100.00
30421;BME280;17218;54.070;10.012;2023-06-14T06:12:44;101874.94;;;17.41;100.00
30421;BME280;17218;54.070;10.012;2023-06-14T06:15:14;101876.78;;;17.36;100.00
30421;BME280;17218;54.070;10.012;2023-06-14T06:17:41;101881.84;;;17.45;100.00
30421;BME280;17218;54.070;10.012;2023-06-14T06:20:08;101879.84;;;17.60;100.00
30421;BME280;17218;54.070;10.012;2023-06-14T06:22:35;101881.31;;;17.75;100.00
30421;BME280;17218;54.070;10.012;2023-06-14T06:25:01;101888.91;;;17.87;100.00
30421;BME280;17218;54.070;10.012;2023-06-14T06:27:28;101877.31;;;17.99;100.00
30421;BME280;17218;54.070;10.012;2023-06-14T06:29:54;101871.88;;;18.09;100.00
30421;BME280;17218;54.070;10.012;2023-06-14T06:32:22;101876.91;;;18.20;100.00
30421;BME280;17218;54.070;10.012;2023-06-14T06:34:49;101883.00;;;18.22;100.00
30421;BME280;17218;54.070;10.012;2023-06-14T06:37:15;101876.75;;;18.28;100.00
30421;BME280;17218;54.070;10.012;2023-06-14T06:39:42;101877.53;;;18.33;100.00
30421;BME280;17218;54.070;10.012;2023-06-14T06:42:08;101877.28;;;18.44;100.00
30421;BME280;17218;54.070;10.012;2023-06-14T06:44:36;101876.41;;;18.45;100.00
30421;BME280;17218;54.070;10.012;2023-06-14T06:47:02;101874.63;;;18.47;100.00
30421;BME280;17218;54.070;10.012;2023-06-14T06:49:30;101869.16;;;18.55;100.00
30421;BME280;17218;54.070;10.012;2023-06-14T06:52:00;101874.31;;;18.59;100.00
30421;BME280;17218;54.070;10.012;2023-06-14T06:54:27;101880.25;;;18.68;100.00
30421;BME280;17218;54.070;10.012;2023-06-14T06:56:54;101882.59;;;18.79;100.00
30421;BME280;17218;54.070;10.012;2023-06-14T06:59:20;101885.09;;;18.85;100.00
30421;BME280;17218;54.070;10.012;2023-06-14T07:01:47;101889.34;;;18.91;100.00
30421;BME280;17218;54.070;10.012;2023-06-14T07:04:13;101886.44;;;19.02;100.00
30421;BME280;17218;54.070;10.012;2023-06-14T07:06:42;101885.63;;;19.00;100.00
30421;BME280;17218;54.070;10.012;2023-06-14T07:09:09;101894.16;;;19.10;100.00
30421;BME280;17218;54.070;10.012;2023-06-14T07:11:38;101891.38;;;19.17;100.00
30421;BME280;17218;54.070;10.012;2023-06-14T07:14:04;101903.41;;;19.26;100.00
30421;BME280;17218;54.070;10.012;2023-06-14T07:16:31;101895.75;;;19.17;100.00
30421;BME280;17218;54.070;10.012;2023-06-14T07:18:57;101902.03;;;19.10;100.00
30421;BME280;17218;54.070;10.012;2023-06-14T07:21:25;101904.41;;;19.21;100.00
30421;BME280;17218;54.070;10.012;2023-06-14T07:23:53;101898.84;;;19.33;100.00
30421;BME280;17218;54.070;10.012;2023-06-14T07:26:23;101909.16;;;19.41;100.00
30421;BME280;17218;54.070;10.012;2023-06-14T07:28:50;101901.13;;;19.47;100.00
30421;BME280;17218;54.070;10.012;2023-06-14T07:31:16;101901.59;;;19.62;100.00
30421;BME280;17218;54.070;10.012;2023-06-14T07:33:44;101903.03;;;19.74;100.00
30421;BME280;17218;54.070;10.012;2023-06-14T07:36:12;101902.66;;;19.86;100.00
30421;BME280;17218;54.070;10.012;2023-06-14T07:38:39;101899.78;;;19.96;100.00
30421;BME280;17218;54.070;10.012;2023-06-14T07:41:07;101902.16;;;20.05;100.00
30421;BME280;17218;54.070;10.012;2023-06-14T07:43:33;101895.00;;;20.12;100.00
30421;BME280;17218;54.070;10.012;2023-06-14T07:46:00;101904.44;;;20.19;100.00
30421;BME280;17218;54.070;10.012;2023-06-14T07:48:27;101900.78;;;20.23;100.00
30421;BME280;17218;54.070;10.012;2023-06-14T07:50:53;101897.03;;;20.31;100.00
30421;BME280;17218;54.070;10.012;2023-06-14T07:53:20;101895.16;;;20.36;100.00
30421;BME280;17218;54.070;10.012;2023-06-14T07:55:46;101895.63;;;20.49;100.00
30421;BME280;17218;54.070;10.012;2023-06-14T07:58:15;101900.66;;;20.57;100.00
30421;BME280;17218;54.070;10.012;2023-06-14T08:00:41;101884.56;;;20.66;100.00
30421;BME280;17218;54.070;10.012;2023-06-14T08:03:08;101884.16;;;20.79;100.00
30421;BME280;17218;54.070;10.012;2023-06-14T08:05:35;101880.47;;;20.84;100.00
30421;BME280;17218;54.070;10.012;2023-06-14T08:08:01;101884.69;;;20.90;100.00
30421;BME280;17218;54.070;10.012;2023-06-14T08:10:28;101885.34;;;20.99;100.00
30421;BME280;17218;54.070;10.012;2023-06-14T08:12:55;101882.44;;;21.06;100.00
30421;BME280;17218;54.070;10.012;2023-06-14T08:15:22;101891.00;;;21.13;100.00
30421;BME280;17218;54.070;10.012;2023-06-14T08:17:49;101887.13;;;21.24;100.00
30421;BME280;17218;54.070;10.012;2023-06-14T08:20:16;101892.03;;;21.35;100.00
30421;BME280;17218;54.070;10.012;2023-06-14T08:22:43;101885.81;;;21.37;100.00
30421;BME280;17218;54.070;10.012;2023-06-14T08:25:11;101886.59;;;21.39;100.00
30421;BME280;17218;54.070;10.012;2023-06-14T08:27:38;101887.25;;;21.46;100.00
30421;BME280;17218;54.070;10.012;2023-06-14T08:30:06;101886.00;;;21.56;100.00
30421;BME280;17218;54.070;10.012;2023-06-14T08:32:34;101894.31;;;21.69;100.00
30421;BME280;17218;54.070;10.012;2023-06-14T08:35:01;101889.56;;;21.81;100.00
30421;BME280;17218;54.070;10.012;2023-06-14T08:37:27;101886.00;;;21.82;100.00
30421;BME280;17218;54.070;10.012;2023-06-14T08:39:55;101889.41;;;21.86;100.00
30421;BME280;17218;54.070;10.012;2023-06-14T08:42:22;101881.19;;;21.93;100.00
30421;BME280;17218;54.070;10.012;2023-06-14T08:44:50;101891.56;;;21.98;100.00
30421;BME280;17218;54.070;10.012;2023-06-14T08:47:17;101886.03;;;22.04;100.00
30421;BME280;17218;54.070;10.012;2023-06-14T08:49:47;101886.75;;;22.10;100.00
30421;BME280;17218;54.070;10.012;2023-06-14T08:52:18;101874.72;;;22.25;100.00
30421;BME280;17218;54.070;10.012;2023-06-14T08:54:46;101881.31;;;22.37;100.00
30421;BME280;17218;54.070;10.012;2023-06-14T08:57:14;101879.47;;;22.39;100.00
30421;BME280;17218;54.070;10.012;2023-06-14T08:59:46;101870.09;;;22.54;100.00
30421;BME280;17218;54.070;10.012;2023-06-14T09:02:14;101876.03;;;22.59;100.00
30421;BME280;17218;54.070;10.012;2023-06-14T09:04:43;101880.84;;;22.72;100.00
30421;BME280;17218;54.070;10.012;2023-06-14T09:07:11;101880.53;;;22.80;100.00
30421;BME280;17218;54.070;10.012;2023-06-14T09:09:41;101884.66;;;22.87;100.00
30421;BME280;17218;54.070;10.012;2023-06-14T09:12:08;101885.44;;;22.89;100.00
30421;BME280;17218;54.070;10.012;2023-06-14T09:14:37;101881.63;;;22.96;100.00
30421;BME280;17218;54.070;10.012;2023-06-14T09:17:06;101890.44;;;22.95;92.66
30421;BME280;17218;54.070;10.012;2023-06-14T09:19:33;101885.09;;;22.97;96.90
30421;BME280;17218;54.070;10.012;2023-06-14T09:22:00;101885.78;;;23.02;94.29
30421;BME280;17218;54.070;10.012;2023-06-14T09:24:28;101896.81;;;23.12;96.65
30421;BME280;17218;54.070;10.012;2023-06-14T09:26:55;101884.00;;;23.23;100.00
30421;BME280;17218;54.070;10.012;2023-06-14T09:29:22;101886.19;;;23.34;100.00
30421;BME280;17218;54.070;10.012;2023-06-14T09:31:49;101890.88;;;23.49;97.35
30421;BME280;17218;54.070;10.012;2023-06-14T09:34:16;101886.44;;;23.70;91.88
30421;BME280;17218;54.070;10.012;2023-06-14T09:36:43;101892.75;;;23.87;99.68
30421;BME280;17218;54.070;10.012;2023-06-14T09:39:10;101891.88;;;23.86;94.87
30421;BME280;17218;54.070;10.012;2023-06-14T09:41:39;101895.00;;;23.75;97.66
30421;BME280;17218;54.070;10.012;2023-06-14T09:44:08;101887.66;;;23.82;97.46
30421;BME280;17218;54.070;10.012;2023-06-14T09:46:36;101891.38;;;23.97;98.12
30421;BME280;17218;54.070;10.012;2023-06-14T09:49:04;101890.81;;;24.10;91.65
30421;BME280;17218;54.070;10.012;2023-06-14T09:51:31;101883.25;;;24.02;94.49
30421;BME280;17218;54.070;10.012;2023-06-14T09:53:59;101877.28;;;24.16;100.00
30421;BME280;17218;54.070;10.012;2023-06-14T09:56:28;101870.97;;;24.20;83.46
30421;BME280;17218;54.070;10.012;2023-06-14T09:58:57;101883.44;;;24.16;84.03
30421;BME280;17218;54.070;10.012;2023-06-14T10:01:25;101879.88;;;24.17;90.67
30421;BME280;17218;54.070;10.012;2023-06-14T10:03:55;101881.19;;;24.28;88.11
30421;BME280;17218;54.070;10.012;2023-06-14T10:06:23;101868.97;;;24.43;93.62
30421;BME280;17218;54.070;10.012;2023-06-14T10:08:52;101867.81;;;24.49;88.72
30421;BME280;17218;54.070;10.012;2023-06-14T10:11:22;101872.84;;;24.36;89.02
30421;BME280;17218;54.070;10.012;2023-06-14T10:13:49;101870.66;;;24.26;85.93
30421;BME280;17218;54.070;10.012;2023-06-14T10:16:22;101872.53;;;24.24;85.68
30421;BME280;17218;54.070;10.012;2023-06-14T10:19:04;101871.31;;;24.32;90.57
30421;BME280;17218;54.070;10.012;2023-06-14T10:21:41;101877.59;;;24.48;86.28
30421;BME280;17218;54.070;10.012;2023-06-14T10:24:13;101869.81;;;24.63;88.50
30421;BME280;17218;54.070;10.012;2023-06-14T10:26:50;101864.91;;;24.73;87.94
30421;BME280;17218;54.070;10.012;2023-06-14T10:29:17;101866.09;;;24.85;80.21
30421;BME280;17218;54.070;10.012;2023-06-14T10:31:47;101872.44;;;25.00;75.99
30421;BME280;17218;54.070;10.012;2023-06-14T10:34:21;101872.19;;;25.05;74.58
30421;BME280;17218;54.070;10.012;2023-06-14T10:37:00;101866.41;;;25.14;79.36
30421;BME280;17218;54.070;10.012;2023-06-14T10:39:28;101864.00;;;25.27;84.60
30421;BME280;17218;54.070;10.012;2023-06-14T10:41:56;101865.81;;;25.43;83.12
30421;BME280;17218;54.070;10.012;2023-06-14T10:44:39;101856.72;;;25.65;80.74
30421;BME280;17218;54.070;10.012;2023-06-14T10:47:10;101855.50;;;25.88;79.24
30421;BME280;17218;54.070;10.012;2023-06-14T10:49:42;101865.50;;;26.15;69.92
30421;BME280;17218;54.070;10.012;2023-06-14T10:52:10;101852.25;;;26.31;66.50
30421;BME280;17218;54.070;10.012;2023-06-14T10:55:02;101857.28;;;26.20;67.62
30421;BME280;17218;54.070;10.012;2023-06-14T10:57:31;101851.03;;;26.05;69.78
30421;BME280;17218;54.070;10.012;2023-06-14T10:59:58;101849.25;;;26.05;67.15
30421;BME280;17218;54.070;10.012;2023-06-14T11:05:27;101846.41;;;26.41;72.82
30421;BME280;17218;54.070;10.012;2023-06-14T11:08:04;101839.09;;;26.61;65.72
30421;BME280;17218;54.070;10.012;2023-06-14T11:10:39;101846.44;;;26.72;61.83
30421;BME280;17218;54.070;10.012;2023-06-14T11:13:06;101838.41;;;26.88;65.28
30421;BME280;17218;54.070;10.012;2023-06-14T11:15:33;101840.84;;;26.91;63.41
30421;BME280;17218;54.070;10.012;2023-06-14T11:18:02;101842.28;;;26.82;59.21
30421;BME280;17218;54.070;10.012;2023-06-14T11:20:30;101834.63;;;26.61;59.21
30421;BME280;17218;54.070;10.012;2023-06-14T11:22:57;101840.84;;;26.46;65.97
30421;BME280;17218;54.070;10.012;2023-06-14T11:25:24;101839.03;;;26.46;67.44
30421;BME280;17218;54.070;10.012;2023-06-14T11:27:51;101837.88;;;26.66;62.25
30421;BME280;17218;54.070;10.012;2023-06-14T11:30:18;101826.53;;;26.79;62.33
30421;BME280;17218;54.070;10.012;2023-06-14T11:32:46;101831.91;;;27.08;60.36
30421;BME280;17218;54.070;10.012;2023-06-14T11:35:15;101832.66;;;27.39;57.25
30421;BME280;17218;54.070;10.012;2023-06-14T11:37:42;101828.28;;;27.68;54.60
30421;BME280;17218;54.070;10.012;2023-06-14T11:40:11;101822.16;;;27.95;50.84
30421;BME280;17218;54.070;10.012;2023-06-14T11:42:39;101823.41;;;28.17;53.79
30421;BME280;17218;54.070;10.012;2023-06-14T11:45:08;101814.28;;;28.62;50.42
30421;BME280;17218;54.070;10.012;2023-06-14T11:47:36;101811.16;;;29.22;49.48
30421;BME280;17218;54.070;10.012;2023-06-14T11:50:09;101814.28;;;29.91;45.01
30421;BME280;17218;54.070;10.012;2023-06-14T11:52:37;101804.38;;;30.53;43.35
30421;BME280;17218;54.070;10.012;2023-06-14T11:55:05;101805.47;;;31.10;40.47
30421;BME280;17218;54.070;10.012;2023-06-14T11:57:34;101809.44;;;31.73;38.78
30421;BME280;17218;54.070;10.012;2023-06-14T12:00:03;101804.47;;;32.34;38.07
30421;BME280;17218;54.070;10.012;2023-06-14T12:02:31;101796.66;;;32.95;34.40
30421;BME280;17218;54.070;10.012;2023-06-14T12:05:04;101803.03;;;33.76;33.76
30421;BME280;17218;54.070;10.012;2023-06-14T12:07:31;101795.13;;;34.82;29.84
30421;BME280;17218;54.070;10.012;2023-06-14T12:10:06;101801.56;;;34.61;30.51
30421;BME280;17218;54.070;10.012;2023-06-14T12:12:35;101803.75;;;34.28;29.48
30421;BME280;17218;54.070;10.012;2023-06-14T12:15:05;101806.34;;;33.49;30.68
30421;BME280;17218;54.070;10.012;2023-06-14T12:17:33;101796.16;;;33.42;31.21
30421;BME280;17218;54.070;10.012;2023-06-14T12:20:05;101799.66;;;34.34;31.12
30421;BME280;17218;54.070;10.012;2023-06-14T12:22:36;101808.53;;;35.02;30.72
30421;BME280;17218;54.070;10.012;2023-06-14T12:25:04;101796.78;;;35.31;28.59
30421;BME280;17218;54.070;10.012;2023-06-14T12:27:31;101798.22;;;35.26;28.99
30421;BME280;17218;54.070;10.012;2023-06-14T12:29:59;101796.13;;;36.39;27.72
30421;BME280;17218;54.070;10.012;2023-06-14T12:32:26;101786.09;;;36.84;27.06
30421;BME280;17218;54.070;10.012;2023-06-14T12:34:52;101787.50;;;36.88;26.50
30421;BME280;17218;54.070;10.012;2023-06-14T12:37:18;101786.53;;;37.50;26.03
30421;BME280;17218;54.070;10.012;2023-06-14T12:39:45;101788.91;;;37.61;25.65